Terminal Aerodrome Forecast
Issued by NWS

Home | Current Version | Previous Version | Text Only | Print | Product List | Glossary Off
Versions: 1 2 3 4 5 6 7 8 9 10 11 12 13 14 15

581
FTUS43 KTOP 181133
TAFMHK
TAF
KMHK 181133Z 1812/1912 18008KT P6SM SCT120
     FM181300 19008KT P6SM VCTS SCT050 BKN080CB
     FM181600 20013G21KT P6SM SCT200
     FM190100 18008KT P6SM SCT200=

USA.gov is the U.S. government's official web portal to all federal, state and local government web resources and services.